createdAt,value
2018-07-28T00:01:33.472Z,93131.88
2018-07-28T00:04:01.578Z,93138.28
2018-07-28T00:06:29.648Z,93140.53
2018-07-28T00:08:57.769Z,93134.59
2018-07-28T00:11:25.785Z,93130.11
2018-07-28T00:13:53.887Z,93131.50
2018-07-28T00:16:21.994Z,93135.02
2018-07-28T00:18:50.074Z,93141.52
2018-07-28T00:21:18.227Z,93140.45
2018-07-28T00:23:46.296Z,93145.64
2018-07-28T00:26:18.110Z,93144.63
2018-07-28T00:28:47.598Z,93141.38
2018-07-28T00:31:15.660Z,93144.96
2018-07-28T00:33:43.957Z,93141.87
2018-07-28T00:36:12.190Z,93142.47
2018-07-28T00:38:40.429Z,93142.14
2018-07-28T00:41:08.584Z,93139.66
2018-07-28T00:43:36.704Z,93139.40
2018-07-28T00:46:04.915Z,93139.11
2018-07-28T00:48:32.951Z,93150.16
2018-07-28T00:51:01.065Z,93154.80
2018-07-28T00:53:29.210Z,93155.38
2018-07-28T00:55:57.213Z,93158.69
2018-07-28T00:58:25.338Z,93151.05
2018-07-28T01:00:53.402Z,93151.65
2018-07-28T01:03:21.534Z,93155.13
2018-07-28T01:05:49.579Z,93153.94
2018-07-28T01:08:17.709Z,93159.52
2018-07-28T01:10:45.762Z,93154.22
2018-07-28T01:13:13.820Z,93146.55
2018-07-28T01:15:41.906Z,93138.77
2018-07-28T01:18:09.976Z,93137.23
2018-07-28T01:20:38.119Z,93128.41
2018-07-28T01:23:06.171Z,93117.78
2018-07-28T01:25:34.257Z,93124.20
2018-07-28T01:28:02.355Z,93112.41
2018-07-28T01:30:31.967Z,93119.24
2018-07-28T01:33:00.748Z,93117.41
2018-07-28T01:35:29.312Z,93115.11
2018-07-28T01:37:57.357Z,93120.48
2018-07-28T01:40:25.430Z,93130.43
2018-07-28T01:42:53.469Z,93130.34
2018-07-28T01:45:21.546Z,93127.67
2018-07-28T01:47:49.674Z,93135.31
2018-07-28T01:50:17.720Z,93132.69
2018-07-28T01:52:45.816Z,93132.54
2018-07-28T01:55:13.875Z,93140.11
2018-07-28T01:57:41.900Z,93146.52
2018-07-28T02:00:10.178Z,93142.03
2018-07-28T02:02:38.299Z,93147.34
2018-07-28T02:05:07.884Z,93141.97
2018-07-28T02:07:35.983Z,93151.08
2018-07-28T02:10:04.304Z,93143.34
2018-07-28T02:12:32.467Z,93137.41
2018-07-28T02:15:00.599Z,93142.72
2018-07-28T02:17:28.638Z,93148.50
2018-07-28T02:19:56.699Z,93145.73
2018-07-28T02:22:24.825Z,93147.24
2018-07-28T02:24:52.818Z,93147.24
2018-07-28T02:27:20.930Z,93142.13
2018-07-28T02:29:49.026Z,93143.70
2018-07-28T02:32:17.203Z,93143.77
2018-07-28T02:34:45.370Z,93143.41
2018-07-28T02:37:13.393Z,93139.84
2018-07-28T02:39:41.429Z,93144.27
2018-07-28T02:42:09.487Z,93142.10
2018-07-28T02:44:37.668Z,93138.11
2018-07-28T02:47:05.755Z,93151.64
2018-07-28T02:49:33.832Z,93149.08
2018-07-28T02:52:01.934Z,93152.32
2018-07-28T02:54:29.996Z,93159.00
2018-07-28T02:56:58.097Z,93153.06
2018-07-28T02:59:26.144Z,93157.39
2018-07-28T03:01:54.299Z,93157.27
2018-07-28T03:04:22.309Z,93156.52
2018-07-28T03:06:50.349Z,93156.64
2018-07-28T03:09:18.371Z,93158.43
2018-07-28T03:11:46.400Z,93157.81
2018-07-28T03:14:14.635Z,93156.17
2018-07-28T03:16:42.651Z,93157.37
2018-07-28T03:19:10.697Z,93159.59
2018-07-28T03:21:38.875Z,93159.66
2018-07-28T03:24:07.022Z,93158.80
2018-07-28T03:26:35.204Z,93152.00
2018-07-28T03:29:03.324Z,93154.81
2018-07-28T03:31:31.417Z,93153.38
2018-07-28T03:33:59.541Z,93157.37
2018-07-28T03:36:27.742Z,93159.73
2018-07-28T03:38:55.745Z,93155.33
2018-07-28T03:41:23.788Z,93149.34
2018-07-28T03:43:51.966Z,93148.02
2018-07-28T03:46:20.114Z,93159.45
2018-07-28T03:48:48.492Z,93164.56
2018-07-28T03:51:16.758Z,93164.83
2018-07-28T03:53:45.043Z,93154.77
2018-07-28T03:56:13.277Z,93153.58
2018-07-28T03:58:41.410Z,93156.19
2018-07-28T04:01:09.579Z,93159.82
2018-07-28T04:03:37.767Z,93162.76
2018-07-28T04:06:05.972Z,93158.42
2018-07-28T04:08:34.184Z,93160.95
2018-07-28T04:11:02.272Z,93155.20
2018-07-28T04:13:30.391Z,93155.70
2018-07-28T04:15:58.445Z,93150.38
2018-07-28T04:18:26.496Z,93157.31
2018-07-28T04:20:54.467Z,93155.19
2018-07-28T04:23:22.515Z,93168.63
2018-07-28T04:25:50.548Z,93162.52
2018-07-28T04:28:18.589Z,93165.27
2018-07-28T04:30:46.541Z,93169.97
2018-07-28T04:33:14.497Z,93172.20
2018-07-28T04:35:42.540Z,93169.59
2018-07-28T04:38:10.558Z,93172.58
2018-07-28T04:40:38.590Z,93165.05
2018-07-28T04:43:06.571Z,93153.80
2018-07-28T04:45:34.875Z,93171.89
2018-07-28T04:48:03.229Z,93174.11
2018-07-28T04:50:31.533Z,93164.47
2018-07-28T04:52:59.705Z,93160.70
2018-07-28T04:55:27.755Z,93169.50
2018-07-28T04:57:55.990Z,93170.45
2018-07-28T05:00:24.207Z,93167.41
2018-07-28T05:02:52.152Z,93177.48
2018-07-28T05:05:20.169Z,93179.11
2018-07-28T05:07:48.196Z,93181.72
2018-07-28T05:10:16.225Z,93188.72
2018-07-28T05:12:44.461Z,93184.58
2018-07-28T05:15:12.731Z,93190.80
2018-07-28T05:17:41.005Z,93193.61
2018-07-28T05:20:09.341Z,93197.84
2018-07-28T05:22:37.657Z,93202.48
2018-07-28T05:25:05.949Z,93201.52
2018-07-28T05:27:34.317Z,93209.27
2018-07-28T05:30:02.736Z,93207.95
2018-07-28T05:32:31.111Z,93206.64
2018-07-28T05:34:59.337Z,93207.78
2018-07-28T05:37:27.630Z,93197.47
2018-07-28T05:39:55.901Z,93201.09
2018-07-28T05:42:24.263Z,93206.12
2018-07-28T05:44:52.634Z,93208.60
2018-07-28T05:47:20.953Z,93210.48
2018-07-28T05:49:49.297Z,93215.55
2018-07-28T05:52:17.590Z,93215.53
2018-07-28T05:54:45.846Z,93206.92
2018-07-28T05:57:14.423Z,93208.16
2018-07-28T05:59:42.990Z,93204.14
2018-07-28T06:02:11.944Z,93202.15
2018-07-28T06:04:40.457Z,93205.33
2018-07-28T06:07:09.024Z,93204.25
2018-07-28T06:09:37.509Z,93200.95
2018-07-28T06:12:05.961Z,93200.14
2018-07-28T06:14:34.365Z,93198.00
2018-07-28T06:17:02.820Z,93207.75
2018-07-28T06:19:31.556Z,93204.66
2018-07-28T06:22:00.157Z,93203.19
2018-07-28T06:24:28.811Z,93199.38
2018-07-28T06:26:57.444Z,93195.61
2018-07-28T06:29:25.928Z,93199.47
2018-07-28T06:31:54.604Z,93198.91
2018-07-28T06:34:23.259Z,93195.25
2018-07-28T06:36:51.679Z,93196.95
2018-07-28T06:39:20.186Z,93192.50
2018-07-28T06:41:48.719Z,93189.88
2018-07-28T06:44:17.192Z,93188.92
2018-07-28T06:46:45.772Z,93198.30
2018-07-28T06:49:14.215Z,93203.23
2018-07-28T06:51:42.651Z,93193.76
2018-07-28T06:54:11.741Z,93194.02
2018-07-28T06:56:40.988Z,93192.88
2018-07-28T06:59:09.631Z,93194.09
2018-07-28T07:01:38.183Z,93186.16
2018-07-28T07:04:06.672Z,93191.59
2018-07-28T07:06:35.324Z,93187.08
2018-07-28T07:09:06.516Z,93183.73
2018-07-28T07:11:35.191Z,93180.08
2018-07-28T07:14:03.942Z,93182.16
2018-07-28T07:16:33.452Z,93184.53
2018-07-28T07:19:02.326Z,93180.87
2018-07-28T07:21:31.080Z,93188.53
2018-07-28T07:23:59.899Z,93182.27
2018-07-28T07:26:28.683Z,93189.80
2018-07-28T07:28:58.723Z,93184.91
2018-07-28T07:31:27.937Z,93183.66
2018-07-28T07:33:56.816Z,93185.20
2018-07-28T07:36:25.364Z,93175.84
2018-07-28T07:38:55.486Z,93173.61
2018-07-28T07:41:23.911Z,93171.94
2018-07-28T07:43:52.365Z,93180.06
2018-07-28T07:46:22.299Z,93175.74
2018-07-28T07:48:51.102Z,93181.13
2018-07-28T07:51:19.599Z,93181.12
2018-07-28T07:53:48.477Z,93181.41
2018-07-28T07:56:17.491Z,93186.00
2018-07-28T07:58:46.248Z,93190.91
2018-07-28T08:01:15.123Z,93184.05
2018-07-28T08:03:44.960Z,93185.94
2018-07-28T08:06:13.704Z,93184.92
2018-07-28T08:08:46.367Z,93186.11
2018-07-28T08:11:15.329Z,93182.71
2018-07-28T08:13:45.064Z,93177.48
2018-07-28T08:16:14.326Z,93177.03
2018-07-28T08:18:42.892Z,93178.58
2018-07-28T08:21:11.364Z,93182.98
2018-07-28T08:23:40.949Z,93179.77
2018-07-28T08:26:09.843Z,93177.81
2018-07-28T08:28:38.603Z,93177.11
2018-07-28T08:31:07.453Z,93181.03
2018-07-28T08:33:36.093Z,93181.31
2018-07-28T08:36:04.853Z,93177.86
2018-07-28T08:38:33.596Z,93175.12
2018-07-28T08:41:02.170Z,93174.44
2018-07-28T08:43:30.740Z,93170.18
2018-07-28T08:45:59.620Z,93168.55
2018-07-28T08:48:30.233Z,93167.73
2018-07-28T08:50:58.865Z,93165.46
2018-07-28T08:53:27.457Z,93164.69
2018-07-28T08:55:56.148Z,93168.69
2018-07-28T08:58:24.820Z,93161.67
2018-07-28T09:00:53.858Z,93160.85
2018-07-28T09:03:22.751Z,93151.39
2018-07-28T09:05:52.889Z,93155.87
2018-07-28T09:08:25.307Z,93147.50
2018-07-28T09:10:54.212Z,93140.07
2018-07-28T09:13:23.122Z,93141.37
2018-07-28T09:15:51.740Z,93133.34
2018-07-28T09:18:20.286Z,93134.56
2018-07-28T09:20:48.955Z,93132.05
2018-07-28T09:23:17.193Z,93133.97
2018-07-28T09:25:45.406Z,93128.27
2018-07-28T09:28:13.810Z,93121.95
2018-07-28T09:30:42.370Z,93120.73
2018-07-28T09:33:10.655Z,93114.62
2018-07-28T09:35:38.999Z,93114.09
2018-07-28T09:38:07.406Z,93117.36
2018-07-28T09:40:35.475Z,93114.80
2018-07-28T09:43:04.190Z,93108.23
2018-07-28T09:45:32.729Z,93103.13
2018-07-28T09:48:02.673Z,93105.09
2018-07-28T09:50:32.819Z,93100.63
2018-07-28T09:53:01.092Z,93093.25
2018-07-28T09:55:29.571Z,93095.73
2018-07-28T09:57:57.920Z,93090.80
2018-07-28T10:00:31.759Z,93095.19
2018-07-28T10:03:00.108Z,93090.63
2018-07-28T10:05:28.701Z,93084.55
2018-07-28T10:07:57.126Z,93081.45
2018-07-28T10:10:25.944Z,93085.12
2018-07-28T10:12:54.147Z,93087.29
2018-07-28T10:15:22.428Z,93081.03
2018-07-28T10:17:50.900Z,93089.45
2018-07-28T10:20:19.395Z,93082.98
2018-07-28T10:22:47.878Z,93071.73
2018-07-28T10:25:16.296Z,93075.55
2018-07-28T10:27:44.701Z,93065.60
2018-07-28T10:30:12.957Z,93064.00
2018-07-28T10:32:41.319Z,93058.77
2018-07-28T10:35:11.073Z,93053.83
2018-07-28T10:37:39.756Z,93047.06
2018-07-28T10:40:08.983Z,93048.38
2018-07-28T10:42:39.001Z,93046.02
2018-07-28T10:45:07.669Z,93043.52
2018-07-28T10:47:35.962Z,93041.41
2018-07-28T10:50:05.276Z,93029.81
2018-07-28T10:52:33.504Z,93037.91
2018-07-28T10:55:01.680Z,93033.43
2018-07-28T10:57:30.058Z,93032.36
2018-07-28T10:59:58.482Z,93028.39
2018-07-28T11:02:26.966Z,93032.47
2018-07-28T11:04:55.107Z,93035.31
2018-07-28T11:07:23.559Z,93033.45
2018-07-28T11:09:51.742Z,93035.53
2018-07-28T11:12:20.073Z,93037.10
2018-07-28T11:14:48.237Z,93036.73
2018-07-28T11:17:16.406Z,93033.70
2018-07-28T11:19:44.522Z,93032.88
2018-07-28T11:22:12.768Z,93030.32
2018-07-28T11:24:40.858Z,93029.16
2018-07-28T11:27:09.005Z,93028.00
2018-07-28T11:29:37.611Z,93014.48
2018-07-28T11:32:17.018Z,93021.16
2018-07-28T11:34:56.114Z,93019.58
2018-07-28T11:37:35.405Z,93021.91
2018-07-28T11:40:14.617Z,93017.49
2018-07-28T11:42:54.443Z,93011.57
2018-07-28T11:45:23.122Z,93019.59
2018-07-28T11:47:52.588Z,93016.81
2018-07-28T11:50:20.714Z,93018.88
2018-07-28T11:52:49.303Z,93020.46
2018-07-28T11:55:17.572Z,93017.35
2018-07-28T11:57:46.058Z,93020.19
2018-07-28T12:00:15.115Z,93019.59
2018-07-28T12:02:43.603Z,93015.59
2018-07-28T12:05:12.440Z,93017.86
2018-07-28T12:07:40.874Z,93018.64
2018-07-28T12:10:09.929Z,93016.91
2018-07-28T12:12:38.497Z,93016.96
2018-07-28T12:15:07.921Z,93015.25
2018-07-28T12:17:36.690Z,93015.42
2018-07-28T12:20:06.433Z,93021.27
2018-07-28T12:22:35.057Z,93025.63
2018-07-28T12:25:03.676Z,93017.79
2018-07-28T12:27:32.678Z,93012.82
2018-07-28T12:30:01.044Z,93013.95
2018-07-28T12:32:29.775Z,93014.64
2018-07-28T12:34:58.192Z,93019.53
2018-07-28T12:37:26.586Z,93025.62
2018-07-28T12:39:54.968Z,93024.90
2018-07-28T12:42:23.729Z,93024.25
2018-07-28T12:44:52.273Z,93027.35
2018-07-28T12:47:20.593Z,93019.27
2018-07-28T12:49:48.995Z,93016.92
2018-07-28T12:52:17.541Z,93024.91
2018-07-28T12:54:45.988Z,93019.89
2018-07-28T12:57:14.490Z,93019.05
2018-07-28T12:59:43.072Z,93021.00
2018-07-28T13:02:11.615Z,93015.58
2018-07-28T13:04:39.965Z,93016.59
2018-07-28T13:07:08.715Z,93017.20
2018-07-28T13:09:38.373Z,93013.38
2018-07-28T13:12:06.978Z,93018.28
2018-07-28T13:14:35.384Z,93012.95
2018-07-28T13:17:03.844Z,93025.56
2018-07-28T13:19:32.732Z,93019.53
2018-07-28T13:22:01.086Z,93023.21
2018-07-28T13:24:30.012Z,93021.96
2018-07-28T13:26:58.760Z,93019.01
2018-07-28T13:29:29.403Z,93018.52
2018-07-28T13:31:58.425Z,93016.05
2018-07-28T13:34:26.915Z,93016.58
2018-07-28T13:36:57.826Z,93004.17
2018-07-28T13:39:26.615Z,93015.64
2018-07-28T13:41:55.425Z,93015.85
2018-07-28T13:44:23.949Z,93019.28
2018-07-28T13:46:52.806Z,93024.20
2018-07-28T13:49:21.496Z,93020.52
2018-07-28T13:51:50.684Z,93020.30
2018-07-28T13:54:19.337Z,93015.66
2018-07-28T13:56:48.045Z,93019.37
2018-07-28T13:59:16.515Z,93022.77
2018-07-28T14:01:44.932Z,93019.16
2018-07-28T14:04:13.463Z,93022.36
2018-07-28T14:06:42.156Z,93025.36
2018-07-28T14:09:11.177Z,93024.78
2018-07-28T14:11:40.932Z,93021.20
2018-07-28T14:14:10.169Z,93021.11
2018-07-28T14:16:39.362Z,93017.33
2018-07-28T14:19:09.242Z,93016.10
2018-07-28T14:21:38.619Z,93016.91
2018-07-28T14:24:07.572Z,93030.34
2018-07-28T14:26:36.007Z,93019.36
2018-07-28T14:29:04.831Z,93021.72
2018-07-28T14:31:33.565Z,93014.54
2018-07-28T14:34:02.400Z,93015.65
2018-07-28T14:36:31.060Z,93006.39
2018-07-28T14:39:01.654Z,93006.11
2018-07-28T14:41:30.249Z,93004.05
2018-07-28T14:43:58.728Z,93003.61
2018-07-28T14:46:27.101Z,93007.69
2018-07-28T14:48:55.548Z,93003.52
2018-07-28T14:51:24.797Z,93006.53
2018-07-28T14:53:53.730Z,93006.66
2018-07-28T14:56:23.445Z,93001.42
2018-07-28T14:58:52.176Z,93010.56
2018-07-28T15:01:22.136Z,93013.38
2018-07-28T15:03:51.783Z,93010.63
2018-07-28T15:06:22.402Z,93010.03
2018-07-28T15:08:54.101Z,93006.27
2018-07-28T15:11:23.063Z,93007.36
2018-07-28T15:13:52.916Z,92995.60
2018-07-28T15:16:23.147Z,93006.23
2018-07-28T15:18:57.344Z,93003.73
2018-07-28T15:21:28.363Z,93009.53
2018-07-28T15:23:58.140Z,93009.38
2018-07-28T15:26:26.717Z,93011.77
2018-07-28T15:28:58.770Z,93013.27
2018-07-28T15:31:27.297Z,93014.16
2018-07-28T15:33:56.031Z,93008.62
2018-07-28T15:36:24.723Z,93011.73
2018-07-28T15:38:53.241Z,93014.08
2018-07-28T15:41:29.721Z,93005.14
2018-07-28T15:44:01.388Z,93013.78
2018-07-28T15:46:30.893Z,93011.11
2018-07-28T15:49:07.482Z,93012.37
2018-07-28T15:51:36.842Z,93018.19
2018-07-28T15:54:08.497Z,93020.10
2018-07-28T15:56:41.493Z,93018.59
2018-07-28T15:59:13.377Z,93020.83
2018-07-28T16:01:45.669Z,93016.86
2018-07-28T16:04:15.310Z,93020.25
2018-07-28T16:06:50.234Z,93025.18
2018-07-28T16:09:27.207Z,93031.56
2018-07-28T16:11:59.901Z,93035.65
2018-07-28T16:14:29.308Z,93035.78
2018-07-28T16:16:58.797Z,93029.63
2018-07-28T16:19:32.314Z,93035.45
2018-07-28T16:22:01.984Z,93029.64
2018-07-28T16:24:31.672Z,93028.51
2018-07-28T16:27:00.760Z,93024.87
2018-07-28T16:29:30.659Z,93029.21
2018-07-28T16:32:00.685Z,93028.22
2018-07-28T16:34:30.737Z,93026.70
2018-07-28T16:37:01.662Z,93027.13
2018-07-28T16:39:32.747Z,93031.77
2018-07-28T16:42:01.975Z,93038.42
2018-07-28T16:44:30.751Z,93031.17
2018-07-28T16:47:02.487Z,93034.87
2018-07-28T16:49:31.567Z,93033.43
2018-07-28T16:52:03.159Z,93035.25
2018-07-28T16:54:32.129Z,93045.23
2018-07-28T16:57:02.880Z,93042.78
2018-07-28T16:59:35.401Z,93045.86
2018-07-28T17:02:04.647Z,93049.03
2018-07-28T17:04:34.583Z,93055.47
2018-07-28T17:07:04.430Z,93059.76
2018-07-28T17:09:35.697Z,93065.97
2018-07-28T17:12:04.736Z,93063.92
2018-07-28T17:14:34.429Z,93056.80
2018-07-28T17:17:05.533Z,93058.83
2018-07-28T17:19:34.790Z,93061.95
2018-07-28T17:22:10.739Z,93061.72
2018-07-28T17:24:39.877Z,93070.36
2018-07-28T17:27:10.719Z,93077.33
2018-07-28T17:29:43.999Z,93081.33
2018-07-28T17:32:12.715Z,93084.04
2018-07-28T17:34:41.469Z,93099.62
2018-07-28T17:37:40.278Z,93097.61
2018-07-28T17:40:31.115Z,93099.10
2018-07-28T17:43:29.851Z,93097.28
2018-07-28T17:46:02.328Z,93101.05
2018-07-28T17:48:37.566Z,93098.70
2018-07-28T17:51:13.970Z,93099.36
2018-07-28T17:53:44.069Z,93100.73
2018-07-28T17:56:14.065Z,93101.36
2018-07-28T17:58:44.590Z,93099.69
2018-07-28T18:01:41.744Z,93099.94
2018-07-28T18:04:34.082Z,93101.70
2018-07-28T18:07:02.977Z,93102.45
2018-07-28T18:09:36.181Z,93102.17
2018-07-28T18:12:05.156Z,93101.08
2018-07-28T18:14:34.046Z,93101.58
2018-07-28T18:17:03.018Z,93105.94
2018-07-28T18:19:32.647Z,93104.48
2018-07-28T18:22:01.453Z,93111.43
2018-07-28T18:24:29.945Z,93128.31
2018-07-28T18:26:58.424Z,93132.50
2018-07-28T18:29:29.281Z,93134.33
2018-07-28T18:31:57.616Z,93133.52
2018-07-28T18:34:26.270Z,93131.39
2018-07-28T18:36:54.875Z,93136.68
2018-07-28T18:39:23.630Z,93142.65
2018-07-28T18:41:52.475Z,93143.28
2018-07-28T18:44:21.395Z,93144.14
2018-07-28T18:46:50.063Z,93144.97
2018-07-28T18:49:25.269Z,93151.73
2018-07-28T18:51:54.281Z,93151.56
2018-07-28T18:54:23.037Z,93155.52
2018-07-28T18:56:51.562Z,93156.34
2018-07-28T18:59:25.433Z,93163.77
2018-07-28T19:01:54.131Z,93168.73
2018-07-28T19:04:23.023Z,93169.72
2018-07-28T19:06:51.557Z,93175.81
2018-07-28T19:09:36.896Z,93174.36
2018-07-28T19:12:05.921Z,93178.31
2018-07-28T19:14:36.265Z,93181.93
2018-07-28T19:17:05.153Z,93181.12
2018-07-28T19:19:34.006Z,93178.13
2018-07-28T19:22:03.258Z,93178.63
2018-07-28T19:24:31.926Z,93175.99
2018-07-28T19:27:00.626Z,93173.04
2018-07-28T19:29:38.347Z,93175.33
2018-07-28T19:32:07.505Z,93179.14
2018-07-28T19:34:36.392Z,93175.66
2018-07-28T19:37:11.273Z,93175.16
2018-07-28T19:39:40.334Z,93172.36
2018-07-28T19:42:14.456Z,93172.20
2018-07-28T19:44:43.154Z,93165.60
2018-07-28T19:47:11.734Z,93168.41
2018-07-28T19:49:40.518Z,93166.39
2018-07-28T19:52:09.184Z,93159.48
2018-07-28T19:54:37.898Z,93174.16
2018-07-28T19:57:06.530Z,93171.83
2018-07-28T19:59:35.300Z,93185.88
2018-07-28T20:02:03.959Z,93188.32
2018-07-28T20:04:32.467Z,93184.36
2018-07-28T20:07:01.158Z,93187.50
2018-07-28T20:09:29.730Z,93192.93
2018-07-28T20:11:58.370Z,93183.97
2018-07-28T20:14:27.228Z,93181.32
2018-07-28T20:16:55.935Z,93176.20
2018-07-28T20:19:24.927Z,93179.50
2018-07-28T20:21:53.458Z,93176.35
2018-07-28T20:24:21.948Z,93174.68
2018-07-28T20:26:50.464Z,93182.73
2018-07-28T20:29:22.490Z,93185.70
2018-07-28T20:31:50.953Z,93186.51
2018-07-28T20:34:19.375Z,93178.41
2018-07-28T20:36:48.372Z,93182.70
2018-07-28T20:39:18.244Z,93177.73
2018-07-28T20:41:46.670Z,93182.49
2018-07-28T20:44:15.135Z,93177.05
2018-07-28T20:46:43.734Z,93185.25
2018-07-28T20:49:13.102Z,93179.80
2018-07-28T20:51:41.522Z,93180.94
2018-07-28T20:54:10.288Z,93180.42
2018-07-28T20:56:38.813Z,93189.64
2018-07-28T20:59:13.107Z,93196.23
2018-07-28T21:01:41.604Z,93196.93
2018-07-28T21:04:09.848Z,93199.72
2018-07-28T21:06:38.139Z,93199.34
2018-07-28T21:09:08.386Z,93201.63
2018-07-28T21:11:37.209Z,93193.56
2018-07-28T21:14:05.659Z,93188.92
2018-07-28T21:16:34.095Z,93197.33
2018-07-28T21:19:09.206Z,93194.49
2018-07-28T21:21:37.582Z,93195.64
2018-07-28T21:24:06.194Z,93197.38
2018-07-28T21:26:34.642Z,93189.44
2018-07-28T21:29:06.644Z,93206.26
2018-07-28T21:31:35.121Z,93202.83
2018-07-28T21:34:03.296Z,93205.26
2018-07-28T21:36:31.520Z,93207.72
2018-07-28T21:39:01.902Z,93206.58
2018-07-28T21:41:30.404Z,93207.74
2018-07-28T21:43:58.858Z,93208.61
2018-07-28T21:46:27.010Z,93209.63
2018-07-28T21:48:56.638Z,93208.16
2018-07-28T21:51:25.083Z,93210.17
2018-07-28T21:53:53.398Z,93208.27
2018-07-28T21:56:23.880Z,93205.13
2018-07-28T21:58:53.350Z,93205.65
2018-07-28T22:01:21.693Z,93207.00
2018-07-28T22:03:50.033Z,93202.37
2018-07-28T22:06:18.429Z,93198.77
2018-07-28T22:08:47.736Z,93199.30
2018-07-28T22:11:16.285Z,93197.13
2018-07-28T22:13:44.704Z,93193.84
2018-07-28T22:16:13.199Z,93189.41
2018-07-28T22:18:41.757Z,93188.04
2018-07-28T22:21:11.588Z,93186.06
2018-07-28T22:23:40.018Z,93179.66
2018-07-28T22:26:08.407Z,93176.52
2018-07-28T22:28:44.129Z,93176.45
2018-07-28T22:31:12.484Z,93189.16
2018-07-28T22:33:40.724Z,93185.83
2018-07-28T22:36:09.012Z,93189.84
2018-07-28T22:38:38.559Z,93189.34
2018-07-28T22:41:06.910Z,93176.58
2018-07-28T22:43:35.314Z,93179.20
2018-07-28T22:46:03.684Z,93180.16
2018-07-28T22:48:31.943Z,93170.55
2018-07-28T22:51:00.321Z,93176.78
2018-07-28T22:53:28.597Z,93166.49
2018-07-28T22:55:56.870Z,93163.51
2018-07-28T22:58:25.664Z,93176.11
2018-07-28T23:00:53.966Z,93173.75
2018-07-28T23:03:22.221Z,93164.66
2018-07-28T23:05:50.553Z,93166.95
2018-07-28T23:08:18.783Z,93164.08
2018-07-28T23:10:47.063Z,93171.33
2018-07-28T23:13:15.382Z,93157.73
2018-07-28T23:15:43.737Z,93154.70
2018-07-28T23:18:11.953Z,93154.23
2018-07-28T23:20:40.239Z,93152.30
2018-07-28T23:23:08.484Z,93151.77
2018-07-28T23:25:36.788Z,93151.16
2018-07-28T23:28:05.139Z,93153.62
2018-07-28T23:30:34.311Z,93148.65
2018-07-28T23:33:02.279Z,93145.41
2018-07-28T23:35:30.347Z,93155.43
2018-07-28T23:37:58.359Z,93156.42
2018-07-28T23:40:26.476Z,93154.02
2018-07-28T23:42:54.531Z,93149.52
2018-07-28T23:45:22.584Z,93147.20
2018-07-28T23:47:50.601Z,93146.73
2018-07-28T23:50:19.718Z,93140.45
2018-07-28T23:52:47.794Z,93143.76
2018-07-28T23:55:15.894Z,93146.88
2018-07-28T23:57:44.228Z,93149.52
